Time;durP1;ratioP1;P1;durP2;ratioP2;P2;SDS_P1;SDS_P2;PMS_P1;PMS_P2;Temp;Humidity;BMP_temperature;BMP_pressure;BME280_temperature;BME280_humidity;BME280_pressure;Samples;Min_cycle;Max_cycle;Signal;HPM_P1;HPM_P2
2021/04/10 00:00:12;;;;;;;17.57;12.97;;;;;;;6.12;47.82;100602.69;5074759;28;20062;-76
2021/04/10 00:02:38;;;;;;;15.67;11.60;;;;;;;6.24;48.22;100622.66;5074833;28;20107;-76
2021/04/10 00:05:06;;;;;;;18.27;12.33;;;;;;;6.35;48.02;100646.22;5074814;28;20017;-78
2021/04/10 00:07:32;;;;;;;15.77;11.00;;;;;;;6.49;48.44;100657.41;5074486;28;20035;-79
2021/04/10 00:09:58;;;;;;;18.10;11.97;;;;;;;6.19;47.96;100587.28;5074604;28;20024;-78
2021/04/10 00:12:23;;;;;;;17.90;12.23;;;;;;;6.67;48.25;100666.41;5074937;28;20025;-78
2021/04/10 00:14:49;;;;;;;14.80;10.73;;;;;;;5.97;48.16;100557.56;5074714;28;20020;-78
2021/04/10 00:17:14;;;;;;;14.80;10.60;;;;;;;6.73;48.32;100660.66;5074526;28;20351;-78
2021/04/10 00:19:39;;;;;;;16.60;11.03;;;;;;;6.52;47.59;100623.88;5074661;28;20104;-78
2021/04/10 00:22:05;;;;;;;15.17;11.97;;;;;;;6.67;47.67;100661.16;5074511;28;20024;-77
2021/04/10 00:24:30;;;;;;;16.13;12.53;;;;;;;6.73;47.75;100667.72;5079749;28;20089;-78
2021/04/10 00:26:56;;;;;;;18.37;13.97;;;;;;;6.09;48.27;100560.97;5081474;28;20024;-78
2021/04/10 00:29:21;;;;;;;18.47;14.10;;;;;;;6.14;48.31;100574.53;5081104;28;20154;-78
2021/04/10 00:31:47;;;;;;;18.27;13.40;;;;;;;6.61;48.22;100657.22;5081266;28;20035;-77
2021/04/10 00:34:12;;;;;;;12.70;10.50;;;;;;;6.62;48.67;100650.19;5081084;28;20043;-78
2021/04/10 00:36:37;;;;;;;13.53;10.03;;;;;;;6.59;48.14;100658.31;5081109;28;20051;-78
2021/04/10 00:39:04;;;;;;;13.03;9.83;;;;;;;5.94;48.19;100539.44;5063109;28;20032;-77
2021/04/10 00:41:29;;;;;;;16.73;10.50;;;;;;;6.12;47.92;100589.56;5081017;28;20450;-78
2021/04/10 00:43:55;;;;;;;15.10;10.63;;;;;;;6.11;48.40;100576.59;5082180;28;20032;-79
2021/04/10 00:46:20;;;;;;;19.33;12.53;;;;;;;6.57;48.60;100645.31;5082586;28;20025;-76
2021/04/10 00:48:45;;;;;;;22.07;14.07;;;;;;;6.45;48.26;100635.81;5081322;28;20107;-77
2021/04/10 00:51:11;;;;;;;29.93;19.70;;;;;;;6.44;48.26;100628.09;5062977;28;20455;-77
2021/04/10 00:53:37;;;;;;;33.73;22.03;;;;;;;6.52;48.50;100641.41;5063276;28;20347;-77
2021/04/10 00:56:05;;;;;;;31.27;19.33;;;;;;;5.89;48.79;100561.69;5080779;28;20028;-78
2021/04/10 00:58:32;;;;;;;30.40;18.77;;;;;;;6.03;48.78;100592.94;5080830;28;20104;-76
2021/04/10 01:00:58;;;;;;;32.50;19.57;;;;;;;6.11;48.46;100594.94;5080957;28;20094;-78
2021/04/10 01:03:23;;;;;;;25.93;17.10;;;;;;;6.26;48.41;100625.16;5063039;28;20028;-76
2021/04/10 01:05:49;;;;;;;25.73;16.97;;;;;;;6.50;48.36;100646.78;5080927;28;20028;-78
2021/04/10 01:08:15;;;;;;;19.57;13.83;;;;;;;6.33;48.41;100631.56;5063028;28;20319;-78
2021/04/10 01:10:41;;;;;;;23.60;15.27;;;;;;;6.47;48.78;100651.44;5080798;28;20398;-77
2021/04/10 01:13:57;;;;;;;24.10;15.20;;;;;;;6.44;48.59;100642.03;5062924;28;20126;-78
2021/04/10 01:16:38;;;;;;;20.93;14.73;;;;;;;6.38;49.05;100637.28;5038671;28;20478;-77
2021/04/10 01:19:34;;;;;;;20.15;14.07;;;;;;;6.31;49.51;100641.38;5076637;28;20036;-77
2021/04/10 01:22:19;;;;;;;19.53;13.93;;;;;;;6.33;48.93;100652.56;5080749;28;20047;-77
2021/04/10 01:24:56;;;;;;;24.67;15.67;;;;;;;6.34;48.69;100636.69;5063027;28;20052;-78
2021/04/10 01:27:32;;;;;;;17.80;12.73;;;;;;;6.04;49.22;100605.91;5080503;28;20029;-78
2021/04/10 01:30:04;;;;;;;19.43;12.33;;;;;;;6.09;49.19;100604.72;5080649;28;20093;-77
2021/04/10 01:32:35;;;;;;;16.02;11.70;;;;;;;6.31;49.15;100641.38;5080659;28;20103;-79
2021/04/10 01:35:08;;;;;;;16.47;12.10;;;;;;;5.83;48.88;100554.31;5061296;28;20039;-78
2021/04/10 01:37:39;;;;;;;20.17;13.37;;;;;;;6.14;49.14;100616.50;5059743;28;20020;-79
2021/04/10 01:40:08;;;;;;;16.57;12.87;;;;;;;6.27;48.93;100625.03;5077259;28;20032;-76
2021/04/10 01:42:35;;;;;;;28.57;15.30;;;;;;;6.20;49.37;100623.88;5060027;28;20263;-77
2021/04/10 01:45:02;;;;;;;21.17;14.73;;;;;;;6.17;49.60;100625.91;5077100;28;20118;-77
2021/04/10 01:47:30;;;;;;;16.17;12.67;;;;;;;5.99;49.51;100602.81;5077197;28;20032;-77
2021/04/10 01:49:57;;;;;;;15.43;10.57;;;;;;;5.74;49.44;100567.19;5076986;28;20049;-79
2021/04/10 01:52:23;;;;;;;13.93;9.87;;;;;;;6.11;49.36;100627.22;5076956;28;20064;-77
2021/04/10 01:54:49;;;;;;;14.13;9.20;;;;;;;6.04;49.65;100634.75;5076970;28;20024;-77
2021/04/10 01:57:19;;;;;;;15.57;9.50;;;;;;;5.96;49.62;100623.22;5059085;28;20031;-78
2021/04/10 01:59:45;;;;;;;13.40;9.17;;;;;;;5.96;49.67;100624.03;5076961;28;20029;-77
2021/04/10 02:02:13;;;;;;;12.03;8.83;;;;;;;5.64;49.70;100566.25;5076805;28;20437;-77
2021/04/10 02:04:43;;;;;;;11.77;8.60;;;;;;;6.15;49.29;100641.75;5076893;28;20063;-77
2021/04/10 02:07:10;;;;;;;12.13;7.40;;;;;;;5.96;49.41;100620.59;5076628;28;20067;-78
2021/04/10 02:09:36;;;;;;;12.83;7.93;;;;;;;6.07;49.71;100643.31;5076784;28;20487;-77
2021/04/10 02:12:03;;;;;;;11.17;7.77;;;;;;;6.06;49.51;100645.13;5058908;28;20021;-77
2021/04/10 02:14:30;;;;;;;12.43;7.93;;;;;;;5.99;49.41;100621.19;5076625;28;20035;-80
2021/04/10 02:16:57;;;;;;;10.63;8.07;;;;;;;5.43;49.15;100533.91;5076665;28;20059;-78
2021/04/10 02:19:22;;;;;;;10.63;7.00;;;;;;;6.09;49.48;100646.66;5076577;28;20036;-76
2021/04/10 02:21:48;;;;;;;10.10;7.03;;;;;;;6.05;49.58;100648.69;5058714;28;20036;-78
2021/04/10 02:24:13;;;;;;;12.30;7.23;;;;;;;5.99;49.51;100643.94;5058607;28;20028;-77
2021/04/10 02:26:39;;;;;;;14.70;9.93;;;;;;;5.93;49.99;100641.78;5076511;28;20025;-76
2021/04/10 02:29:05;;;;;;;17.03;10.23;;;;;;;5.88;50.13;100641.28;5058575;28;20094;-78
2021/04/10 02:31:45;;;;;;;15.13;10.87;;;;;;;5.81;51.03;100640.09;5058708;28;20029;-77
2021/04/10 02:34:33;;;;;;;17.63;12.17;;;;;;;5.77;50.61;100643.91;5076350;28;20035;-77
2021/04/10 02:36:59;;;;;;;18.63;12.13;;;;;;;5.83;50.52;100646.03;5076135;28;20111;-76
2021/04/10 02:39:27;;;;;;;16.93;12.60;;;;;;;5.43;50.58;100581.88;5058358;28;20364;-76
2021/04/10 02:41:56;;;;;;;19.37;12.53;;;;;;;5.16;50.68;100544.72;5076230;28;20052;-78
2021/04/10 02:44:27;;;;;;;21.10;11.73;;;;;;;5.77;50.71;100625.56;5075789;28;20032;-77
2021/04/10 02:46:57;;;;;;;16.00;11.05;;;;;;;5.90;49.98;100660.38;5075700;28;20025;-78
2021/04/10 02:49:27;;;;;;;16.03;11.83;;;;;;;5.33;50.32;100553.91;5075759;28;20035;-78
2021/04/10 02:51:59;;;;;;;17.97;12.50;;;;;;;5.33;50.41;100549.50;5075956;28;20119;-78
2021/04/10 02:54:26;;;;;;;;;;;;;;;5.72;50.71;100639.84;5076144;28;20078;-77
2021/04/10 02:56:56;;;;;;;15.00;10.60;;;;;;;5.64;50.24;100610.81;5075862;28;19920;-78
2021/04/10 02:59:23;;;;;;;14.57;10.37;;;;;;;5.81;49.78;100642.72;5075577;28;20132;-78
2021/04/10 03:01:50;;;;;;;13.63;9.53;;;;;;;5.46;50.09;100604.38;5075613;28;20107;-78
2021/04/10 03:04:17;;;;;;;13.93;8.83;;;;;;;5.42;50.13;100601.16;5057844;28;20036;-79
2021/04/10 03:06:44;;;;;;;9.57;7.60;;;;;;;5.70;49.81;100662.72;5057944;28;20335;-77
2021/04/10 03:09:11;;;;;;;9.23;7.00;;;;;;;5.60;49.51;100632.97;5075469;28;20112;-77
2021/04/10 03:11:37;;;;;;;9.97;6.90;;;;;;;5.55;49.78;100642.97;5075559;28;20153;-79
2021/04/10 03:14:07;;;;;;;8.10;6.50;;;;;;;5.59;49.86;100654.03;5075477;28;20052;-79
2021/04/10 03:16:34;;;;;;;9.30;7.77;;;;;;;5.46;49.86;100624.50;5075291;28;20063;-77
2021/04/10 03:19:00;;;;;;;13.30;9.87;;;;;;;5.59;49.66;100652.25;5057623;28;20124;-78
2021/04/10 03:21:26;;;;;;;13.27;9.73;;;;;;;5.09;49.89;100581.00;5076645;28;20025;-77
2021/04/10 03:23:52;;;;;;;14.80;9.13;;;;;;;5.38;49.90;100651.28;5077391;28;20029;-77
2021/04/10 03:26:19;;;;;;;14.63;11.13;;;;;;;5.15;49.92;100605.06;5075767;28;20096;-77
2021/04/10 03:28:46;;;;;;;14.20;9.87;;;;;;;4.87;50.17;100569.69;5075629;28;20025;-77
2021/04/10 03:31:12;;;;;;;14.07;10.83;;;;;;;5.39;50.01;100652.94;5075128;28;20032;-77
2021/04/10 03:33:38;;;;;;;13.93;11.13;;;;;;;5.38;50.03;100656.53;5057501;28;20346;-77
2021/04/10 03:36:05;;;;;;;17.57;14.10;;;;;;;5.37;49.88;100663.53;5074916;28;20391;-77
2021/04/10 03:38:32;;;;;;;28.17;20.07;;;;;;;5.27;49.97;100649.50;5075243;28;20063;-77
2021/04/10 03:40:59;;;;;;;25.30;20.47;;;;;;;4.79;50.07;100578.09;5075070;28;20032;-77
2021/04/10 03:43:24;;;;;;;20.47;16.03;;;;;;;5.28;50.06;100652.94;5075084;28;20028;-77
2021/04/10 03:45:50;;;;;;;23.37;16.33;;;;;;;4.69;49.99;100577.13;5057403;28;20343;-77
2021/04/10 03:48:15;;;;;;;20.03;14.70;;;;;;;5.00;50.24;100620.97;5074907;28;20063;-77
2021/04/10 03:50:41;;;;;;;17.67;12.53;;;;;;;5.29;50.06;100673.78;5074915;28;20056;-77
2021/04/10 03:53:06;;;;;;;15.80;12.70;;;;;;;5.22;50.25;100661.25;5074828;28;20028;-78
2021/04/10 03:55:32;;;;;;;14.87;12.00;;;;;;;5.28;50.07;100676.50;5075026;28;20108;-77
2021/04/10 03:58:00;;;;;;;16.60;12.33;;;;;;;4.81;50.40;100605.00;5074195;28;20419;-77
2021/04/10 04:00:25;;;;;;;18.13;11.50;;;;;;;5.18;50.42;100667.66;5074773;28;20431;-77
2021/04/10 04:02:51;;;;;;;18.27;12.57;;;;;;;5.31;50.31;100682.34;5074808;28;20043;-77
2021/04/10 04:05:16;;;;;;;17.13;12.33;;;;;;;5.27;49.99;100672.22;5057079;28;20028;-77
2021/04/10 04:07:42;;;;;;;19.20;12.67;;;;;;;5.39;50.23;100684.38;5075019;28;20024;-77
2021/04/10 04:10:07;;;;;;;19.40;13.07;;;;;;;5.00;50.10;100614.91;5056824;28;20031;-76
2021/04/10 04:12:33;;;;;;;22.17;14.57;;;;;;;5.42;50.23;100692.00;5074718;28;20032;-77
2021/04/10 04:14:59;;;;;;;21.80;14.10;;;;;;;5.37;50.50;100692.34;5056886;28;20052;-77
2021/04/10 04:17:24;;;;;;;19.23;13.40;;;;;;;4.98;50.37;100627.28;5056853;28;20032;-77
2021/04/10 04:19:50;;;;;;;23.13;14.13;;;;;;;5.14;50.70;100663.59;5074719;28;20082;-77
2021/04/10 04:22:15;;;;;;;22.33;13.60;;;;;;;5.20;50.31;100681.47;5074599;28;20466;-77
2021/04/10 04:24:41;;;;;;;21.37;13.33;;;;;;;5.19;50.57;100687.66;5074693;28;20109;-77
2021/04/10 04:27:06;;;;;;;23.80;15.57;;;;;;;5.02;50.57;100663.56;5074612;28;20035;-77
2021/04/10 04:29:31;;;;;;;24.97;16.33;;;;;;;5.33;50.50;100700.56;5056817;28;20022;-77
2021/04/10 04:31:57;;;;;;;26.30;19.43;;;;;;;5.30;50.49;100711.25;5074651;28;20070;-77
2021/04/10 04:34:23;;;;;;;29.00;21.53;;;;;;;5.30;50.05;100700.78;5074254;28;20025;-78
2021/04/10 04:36:48;;;;;;;29.13;20.60;;;;;;;4.72;50.63;100634.47;5056835;28;20367;-79
2021/04/10 04:39:14;;;;;;;25.23;18.87;;;;;;;4.61;50.13;100624.78;5074348;28;20374;-77
2021/04/10 04:41:39;;;;;;;32.23;22.33;;;;;;;4.93;50.26;100682.56;5074476;28;20362;-77
2021/04/10 04:44:05;;;;;;;32.43;22.37;;;;;;;4.36;50.46;100599.59;5074760;28;20052;-77
2021/04/10 04:46:30;;;;;;;27.03;18.20;;;;;;;4.97;50.52;100712.81;5056872;28;20028;-77
2021/04/10 04:48:55;;;;;;;24.20;15.63;;;;;;;4.49;50.68;100625.69;5056542;28;20388;-77
2021/04/10 04:51:21;;;;;;;21.53;17.57;;;;;;;4.82;50.45;100671.25;5074251;28;20045;-77
2021/04/10 04:53:47;;;;;;;24.97;16.77;;;;;;;4.70;50.30;100667.75;5076790;23;20048;-76
2021/04/10 04:56:12;;;;;;;20.37;15.00;;;;;;;4.78;50.46;100699.41;5074276;28;20048;-77
2021/04/10 04:58:38;;;;;;;23.33;16.97;;;;;;;4.76;50.33;100685.59;5073484;28;20106;-77
2021/04/10 05:01:03;;;;;;;22.70;16.23;;;;;;;4.91;50.39;100715.88;5074464;28;20189;-77
2021/04/10 05:03:29;;;;;;;23.43;17.03;;;;;;;4.60;50.47;100669.38;5074403;28;20032;-77
2021/04/10 05:05:54;;;;;;;34.23;21.77;;;;;;;4.73;50.41;100699.75;5074304;28;20025;-77
2021/04/10 05:08:20;;;;;;;41.67;26.57;;;;;;;4.82;50.84;100706.09;5073292;28;20029;-77
2021/04/10 05:10:45;;;;;;;39.87;26.13;;;;;;;4.84;50.42;100700.75;5077100;28;20020;-77
2021/04/10 05:13:11;;;;;;;40.97;26.03;;;;;;;5.02;50.37;100721.16;5077965;28;20024;-77
2021/04/10 05:15:36;;;;;;;58.37;38.97;;;;;;;5.06;50.22;100709.50;5076988;28;20086;-77
2021/04/10 05:18:02;;;;;;;54.23;35.53;;;;;;;5.26;50.51;100720.31;5078279;28;20058;-77
2021/04/10 05:20:27;;;;;;;52.33;36.90;;;;;;;5.32;49.81;100725.06;5077784;28;20024;-77
2021/04/10 05:22:54;;;;;;;54.03;36.50;;;;;;;5.42;49.88;100723.44;5076766;28;20094;-77
2021/04/10 05:25:20;;;;;;;50.60;34.70;;;;;;;5.40;49.48;100717.47;5077593;28;20028;-77
2021/04/10 05:27:47;;;;;;;46.97;32.97;;;;;;;5.57;49.72;100722.25;5077657;28;20032;-77
2021/04/10 05:30:13;;;;;;;44.73;29.57;;;;;;;5.52;49.37;100713.91;5076793;28;20183;-77
2021/04/10 05:32:38;;;;;;;43.40;30.43;;;;;;;5.68;49.38;100727.50;5078050;28;20158;-77
2021/04/10 05:35:04;;;;;;;37.67;25.20;;;;;;;5.75;49.16;100741.81;5077270;28;20375;-77
2021/04/10 05:37:29;;;;;;;34.53;23.77;;;;;;;5.82;49.20;100723.84;5077370;28;20033;-77
2021/04/10 05:39:55;;;;;;;33.90;23.70;;;;;;;5.82;48.85;100712.50;5077503;28;20082;-78
2021/04/10 05:42:20;;;;;;;35.27;22.73;;;;;;;5.97;48.76;100719.25;5077225;28;20446;-78
2021/04/10 05:44:46;;;;;;;33.53;23.10;;;;;;;6.10;48.72;100719.94;5077253;28;20350;-77
2021/04/10 05:47:11;;;;;;;26.27;19.87;;;;;;;6.16;48.33;100716.00;5077238;28;20024;-78
2021/04/10 05:49:36;;;;;;;31.83;20.80;;;;;;;6.21;48.10;100712.06;5065860;28;20095;-77
2021/04/10 05:52:02;;;;;;;32.77;21.27;;;;;;;6.28;48.39;100709.78;5059930;28;20135;-77
2021/04/10 05:54:28;;;;;;;26.87;18.73;;;;;;;5.63;48.62;100595.19;5059318;28;20397;-76
2021/04/10 05:56:53;;;;;;;28.87;18.50;;;;;;;6.44;47.82;100712.84;5077971;28;20078;-76
2021/04/10 05:59:18;;;;;;;24.63;16.37;;;;;;;6.52;47.65;100714.88;5078081;28;20044;-77
2021/04/10 06:01:44;;;;;;;21.87;15.77;;;;;;;6.13;47.64;100640.22;5077136;28;20025;-77
2021/04/10 06:04:10;;;;;;;21.23;15.80;;;;;;;6.26;47.18;100660.09;5076949;28;20052;-75
2021/04/10 06:06:35;;;;;;;18.80;13.17;;;;;;;5.85;47.29;100578.63;5076804;28;20035;-77
2021/04/10 06:09:02;;;;;;;19.37;14.37;;;;;;;6.35;46.90;100648.84;5076847;28;20036;-77
2021/04/10 06:11:28;;;;;;;18.60;13.43;;;;;;;6.79;46.98;100714.47;5076603;28;20063;-78
2021/04/10 06:13:53;;;;;;;18.73;14.20;;;;;;;6.76;46.53;100694.53;5076924;28;20105;-76
2021/04/10 06:16:19;;;;;;;15.87;11.87;;;;;;;6.62;46.35;100668.56;5058730;28;20028;-76
2021/04/10 06:18:44;;;;;;;14.83;12.27;;;;;;;6.94;46.02;100715.81;5076920;28;20032;-76
2021/04/10 06:21:10;;;;;;;17.23;13.03;;;;;;;7.04;45.77;100702.78;5075669;28;20512;-76
2021/04/10 06:23:35;;;;;;;16.37;12.60;;;;;;;6.94;46.00;100689.56;5058823;28;20039;-77
2021/04/10 06:26:00;;;;;;;19.53;14.00;;;;;;;6.94;45.63;100673.81;5076510;28;20024;-76
2021/04/10 06:28:26;;;;;;;15.20;12.57;;;;;;;6.74;45.41;100616.88;5058671;28;20028;-77
2021/04/10 06:30:51;;;;;;;16.93;12.43;;;;;;;7.07;45.37;100657.88;5076591;28;20024;-76
2021/04/10 06:33:20;;;;;;;17.80;12.70;;;;;;;7.33;45.53;100693.28;5058604;28;20370;-77
2021/04/10 06:35:46;;;;;;;14.83;12.10;;;;;;;6.94;45.24;100619.50;5076274;28;20020;-77
2021/04/10 06:38:11;;;;;;;19.07;13.63;;;;;;;7.58;45.24;100715.72;5076103;28;20029;-75
2021/04/10 06:40:38;;;;;;;16.03;12.17;;;;;;;7.40;44.87;100667.34;5076299;28;20028;-77
2021/04/10 06:43:04;;;;;;;18.37;11.90;;;;;;;7.78;44.99;100711.41;5076159;28;20036;-77
2021/04/10 06:45:29;;;;;;;17.00;11.50;;;;;;;7.75;44.46;100719.56;5076174;28;20024;-77
2021/04/10 06:47:55;;;;;;;18.67;13.27;;;;;;;7.84;44.56;100716.13;5076183;28;20059;-77
2021/04/10 06:50:22;;;;;;;15.10;11.20;;;;;;;7.93;44.37;100712.72;5075863;28;20024;-78
2021/04/10 06:52:49;;;;;;;14.40;10.10;;;;;;;7.85;43.74;100673.94;5075987;28;20370;-77
2021/04/10 06:55:19;;;;;;;13.13;10.37;;;;;;;8.05;42.82;100710.81;5075650;28;20036;-77
2021/04/10 06:58:17;;;;;;;9.47;7.90;;;;;;;8.16;42.74;100708.91;5076134;28;20320;-77
2021/04/10 07:00:43;;;;;;;8.40;7.50;;;;;;;8.11;43.19;100697.97;5058116;28;20033;-77
2021/04/10 07:03:08;;;;;;;13.77;8.02;;;;;;;8.38;43.18;100714.97;5075769;28;20020;-77
2021/04/10 07:05:34;;;;;;;10.67;8.17;;;;;;;8.42;42.50;100697.97;5075630;28;20468;-77
2021/04/10 07:07:59;;;;;;;8.70;7.30;;;;;;;8.41;42.50;100676.06;5075660;28;20028;-76
2021/04/10 07:10:25;;;;;;;9.02;7.70;;;;;;;8.22;41.84;100632.13;5075434;28;20031;-77
2021/04/10 07:12:50;;;;;;;9.45;7.80;;;;;;;8.64;42.12;100681.09;5057839;28;20036;-77
2021/04/10 07:15:17;;;;;;;10.07;7.95;;;;;;;8.65;41.86;100683.56;5075282;28;20048;-76
2021/04/10 07:17:43;;;;;;;9.60;7.45;;;;;;;8.86;41.65;100694.81;5075388;28;20027;-76
2021/04/10 07:20:31;;;;;;;10.52;7.40;;;;;;;9.02;40.91;100693.44;5075176;28;20036;-78
2021/04/10 07:23:02;;;;;;;11.45;8.60;;;;;;;9.10;41.45;100704.94;5075351;28;20024;-77
2021/04/10 07:25:30;;;;;;;10.95;8.32;;;;;;;8.90;41.64;100646.16;5075283;28;20025;-77
2021/04/10 07:28:16;;;;;;;13.02;8.50;;;;;;;9.03;41.51;100659.06;5057473;28;20032;-77
2021/04/10 07:31:03;;;;;;;12.65;8.40;;;;;;;9.37;41.34;100698.09;5075008;28;20032;-76
2021/04/10 07:33:32;;;;;;;8.88;7.53;;;;;;;9.45;41.28;100693.78;5057133;28;20035;-77
2021/04/10 07:36:00;;;;;;;12.20;8.57;;;;;;;9.44;41.08;100676.31;5057223;28;20028;-76
2021/04/10 07:38:31;;;;;;;9.38;7.82;;;;;;;9.31;41.01;100644.16;5057072;28;20090;-77
2021/04/10 07:40:59;;;;;;;11.02;6.63;;;;;;;9.64;40.72;100685.00;5075095;28;20059;-78
2021/04/10 07:43:30;;;;;;;12.68;8.02;;;;;;;9.83;39.71;100697.31;5074776;28;20028;-77
2021/04/10 07:46:12;;;;;;;9.38;5.97;;;;;;;9.42;38.19;100624.69;5075081;28;20422;-77
2021/04/10 07:48:39;;;;;;;8.70;6.95;;;;;;;9.71;39.54;100656.25;5057234;28;20043;-77
2021/04/10 07:51:14;;;;;;;6.45;5.45;;;;;;;9.74;39.05;100637.50;5074870;28;20086;-77
2021/04/10 07:53:39;;;;;;;8.40;6.13;;;;;;;9.85;39.28;100634.69;5056884;28;20045;-77
2021/04/10 07:56:04;;;;;;;7.32;5.75;;;;;;;9.90;38.79;100613.13;5074714;28;20043;-77
2021/04/10 07:58:32;;;;;;;5.95;5.32;;;;;;;10.33;38.53;100668.72;5074661;28;20024;-76
2021/04/10 08:01:06;;;;;;;8.63;6.18;;;;;;;10.48;38.19;100680.47;5074702;28;20456;-77
2021/04/10 08:03:33;;;;;;;6.85;5.78;;;;;;;10.53;38.38;100676.56;5074540;28;20048;-77
2021/04/10 08:06:04;;;;;;;6.82;6.13;;;;;;;10.61;38.30;100680.09;5074711;28;20070;-77
2021/04/10 08:08:31;;;;;;;9.20;7.18;;;;;;;10.76;37.99;100683.03;5056770;28;20039;-77
2021/04/10 08:11:05;;;;;;;10.15;6.75;;;;;;;10.66;37.95;100650.59;5074695;28;20442;-78
2021/04/10 08:13:32;;;;;;;10.65;6.95;;;;;;;11.02;37.67;100681.28;5074449;28;20024;-77
2021/04/10 08:16:18;;;;;;;9.30;6.72;;;;;;;10.88;37.41;100636.91;5074524;28;20028;-77
2021/04/10 08:18:43;;;;;;;7.85;6.50;;;;;;;11.35;36.85;100677.09;5074593;28;20028;-77
2021/04/10 08:21:09;;;;;;;8.63;6.43;;;;;;;11.38;37.21;100682.06;5074213;28;20040;-78
2021/04/10 08:23:35;;;;;;;6.82;5.70;;;;;;;11.17;37.20;100619.97;5074501;28;20034;-77
2021/04/10 08:26:00;;;;;;;8.95;6.80;;;;;;;11.51;36.71;100659.66;5074486;28;20031;-77
2021/04/10 08:28:26;;;;;;;7.95;6.72;;;;;;;11.74;36.39;100671.38;5074223;28;20028;-77
2021/04/10 08:30:51;;;;;;;7.40;6.70;;;;;;;11.85;35.91;100673.75;5074471;28;20032;-77
2021/04/10 08:33:17;;;;;;;8.48;6.28;;;;;;;11.91;36.31;100667.03;5056400;28;20526;-77
2021/04/10 08:35:42;;;;;;;7.78;4.55;;;;;;;11.78;35.78;100620.66;5074262;28;20515;-76
2021/04/10 08:38:08;;;;;;;6.40;3.80;;;;;;;11.91;35.70;100614.09;5074375;28;20037;-77
2021/04/10 08:40:36;;;;;;;7.53;4.47;;;;;;;12.37;34.78;100663.88;5074593;28;20464;-76
2021/04/10 08:43:01;;;;;;;5.78;4.70;;;;;;;12.30;34.81;100611.72;5074406;28;20025;-76
2021/04/10 08:45:36;;;;;;;5.28;4.78;;;;;;;12.60;35.43;100653.47;5058843;28;20036;-77
2021/04/10 08:48:06;;;;;;;8.02;5.05;;;;;;;12.78;34.26;100657.84;5078515;28;20028;-76
2021/04/10 08:50:35;;;;;;;5.35;4.18;;;;;;;12.77;34.18;100646.41;5077925;28;20036;-76
2021/04/10 08:53:07;;;;;;;5.65;4.22;;;;;;;13.11;34.07;100645.38;5078024;28;20097;-76
2021/04/10 08:55:33;;;;;;;5.28;4.63;;;;;;;13.17;33.49;100637.63;5077969;28;20036;-76
2021/04/10 08:58:16;;;;;;;5.65;5.05;;;;;;;13.50;33.39;100659.63;5060363;28;20085;-77
2021/04/10 09:00:41;;;;;;;6.03;4.47;;;;;;;13.68;33.42;100652.28;5078069;28;20434;-78
2021/04/10 09:03:07;;;;;;;5.85;4.35;;;;;;;13.62;32.84;100639.69;5077932;28;20099;-77
2021/04/10 09:05:52;;;;;;;18.80;5.55;;;;;;;13.64;32.31;100644.84;5077827;28;20032;-76
2021/04/10 09:08:28;;;;;;;5.10;4.60;;;;;;;13.80;32.72;100647.44;5077620;28;20025;-77
2021/04/10 09:10:59;;;;;;;5.20;4.70;;;;;;;13.72;32.53;100599.69;5059790;28;20427;-77
2021/04/10 09:13:46;;;;;;;7.15;4.70;;;;;;;13.85;32.32;100615.06;5077590;28;20024;-77
2021/04/10 09:16:28;;;;;;;4.53;3.80;;;;;;;14.34;31.01;100644.03;5076635;28;20072;-77
2021/04/10 09:19:18;;;;;;;3.63;3.33;;;;;;;14.56;30.96;100641.44;5077498;28;20048;-77
2021/04/10 09:21:55;;;;;;;4.57;3.47;;;;;;;14.82;30.35;100634.91;5077566;28;20081;-76
2021/04/10 09:24:27;;;;;;;4.93;3.40;;;;;;;15.05;30.58;100621.63;5077260;28;20151;-77
2021/04/10 09:26:57;;;;;;;4.63;3.67;;;;;;;15.08;30.35;100615.94;5077455;28;20337;-77
2021/04/10 09:29:24;;;;;;;3.90;2.97;;;;;;;15.23;29.92;100616.78;5077300;28;20102;-77
2021/04/10 09:32:01;;;;;;;3.38;3.08;;;;;;;15.46;29.79;100627.34;5059572;28;20043;-77
2021/04/10 09:34:51;;;;;;;3.38;3.08;;;;;;;15.64;28.31;100621.72;5077306;28;20103;-77
2021/04/10 09:37:19;;;;;;;4.93;3.47;;;;;;;15.83;28.66;100611.31;5077002;28;20439;-77
2021/04/10 09:40:03;;;;;;;7.75;4.15;;;;;;;15.90;26.92;100611.41;5077068;28;20036;-77
2021/04/10 09:42:34;;;;;;;5.70;3.75;;;;;;;15.99;28.31;100612.09;5076847;28;20508;-77
2021/04/10 09:45:09;;;;;;;4.10;3.40;;;;;;;16.22;28.30;100607.44;5077157;28;20032;-77
2021/04/10 09:48:00;;;;;;;5.75;4.72;;;;;;;16.53;28.02;100601.84;5076851;28;20041;-77
2021/04/10 09:50:29;;;;;;;5.10;3.67;;;;;;;16.80;28.08;100602.94;5059037;28;20028;-77
2021/04/10 09:53:11;;;;;;;5.50;4.05;;;;;;;17.03;27.60;100592.03;5076698;28;20077;-77
2021/04/10 09:55:38;;;;;;;4.57;3.15;;;;;;;17.02;28.01;100590.38;5076031;28;20165;-77
2021/04/10 09:58:06;;;;;;;4.50;3.47;;;;;;;17.33;27.62;100580.16;5076306;28;20029;-77
2021/04/10 10:00:33;;;;;;;3.90;3.30;;;;;;;17.58;27.35;100575.13;5076754;28;20024;-78
2021/04/10 10:02:59;;;;;;;4.72;3.42;;;;;;;17.72;27.06;100566.19;5076691;28;20032;-77
2021/04/10 10:05:31;;;;;;;5.70;3.40;;;;;;;17.89;27.04;100563.19;5076520;28;20027;-76
2021/04/10 10:08:07;;;;;;;3.40;3.10;;;;;;;18.10;26.61;100574.56;5076669;28;20062;-77
2021/04/10 10:10:35;;;;;;;147.05;123.28;;;;;;;17.81;26.55;100497.38;5076399;28;20064;-77
2021/04/10 10:13:06;;;;;;;73.85;63.50;;;;;;;17.88;26.23;100476.88;5058768;28;20395;-76
2021/04/10 10:15:32;;;;;;;15.43;12.65;;;;;;;17.91;25.90;100497.03;5076457;28;20024;-76
2021/04/10 10:17:58;;;;;;;18.42;15.80;;;;;;;18.46;25.59;100565.38;5076599;28;20027;-76
2021/04/10 10:20:24;;;;;;;7.78;7.03;;;;;;;18.33;25.45;100520.72;5076442;28;20051;-77
2021/04/10 10:22:49;;;;;;;5.28;4.30;;;;;;;18.59;25.12;100554.69;5076318;28;20047;-75
2021/04/10 10:25:15;;;;;;;5.22;4.20;;;;;;;18.67;24.90;100545.69;5076230;28;20442;-76
2021/04/10 10:27:46;;;;;;;6.13;5.03;;;;;;;18.93;24.81;100542.97;5076563;28;20338;-78
2021/04/10 10:30:19;;;;;;;6.88;4.80;;;;;;;19.17;24.54;100525.44;5076335;28;20025;-78
2021/04/10 10:32:46;;;;;;;4.90;3.90;;;;;;;19.26;24.18;100518.81;5058715;28;20025;-76
2021/04/10 10:35:13;;;;;;;5.95;5.03;;;;;;;19.21;23.92;100499.06;5076146;28;20024;-76
2021/04/10 10:37:39;;;;;;;5.63;3.63;;;;;;;19.50;23.52;100525.34;5076061;28;20024;-76
2021/04/10 10:40:06;;;;;;;5.07;3.60;;;;;;;19.60;23.24;100527.59;5076166;28;20032;-76
2021/04/10 10:42:31;;;;;;;34.10;28.50;;;;;;;19.73;22.84;100534.75;5076065;28;20024;-77
2021/04/10 10:44:57;;;;;;;19.30;14.43;;;;;;;19.79;22.83;100512.47;5076023;28;20021;-76
2021/04/10 10:47:25;;;;;;;8.80;6.60;;;;;;;19.77;22.64;100501.13;5075912;28;20043;-77
2021/04/10 10:49:52;;;;;;;6.30;5.13;;;;;;;20.00;22.19;100507.59;5075975;28;20027;-78
2021/04/10 10:52:18;;;;;;;6.43;5.07;;;;;;;19.63;21.64;100463.69;5075460;28;20098;-76
2021/04/10 10:54:46;;;;;;;6.30;4.30;;;;;;;20.07;21.59;100506.75;5075961;28;20016;-78
2021/04/10 10:57:17;;;;;;;6.38;3.80;;;;;;;20.11;21.31;100508.78;5075616;28;20024;-77
2021/04/10 10:59:42;;;;;;;6.55;5.45;;;;;;;19.89;21.46;100445.81;5075799;28;20020;-76
2021/04/10 11:02:09;;;;;;;7.72;6.72;;;;;;;20.28;21.59;100499.16;5075763;28;20024;-76
2021/04/10 11:04:37;;;;;;;10.88;9.02;;;;;;;19.88;21.40;100452.22;5075463;28;20024;-75
2021/04/10 11:07:05;;;;;;;5.40;4.30;;;;;;;19.87;21.23;100453.25;5075052;28;20043;-77
2021/04/10 11:09:37;;;;;;;11.07;9.70;;;;;;;20.18;21.29;100489.97;5075321;28;20028;-77
2021/04/10 11:12:13;;;;;;;7.55;6.30;;;;;;;20.23;20.74;100492.81;5075486;28;20320;-75
2021/04/10 11:14:42;;;;;;;7.82;4.80;;;;;;;20.24;20.92;100478.38;5075563;28;20098;-76
2021/04/10 11:17:12;;;;;;;6.75;3.92;;;;;;;20.44;20.78;100476.38;5075242;28;20024;-76
2021/04/10 11:19:40;;;;;;;5.82;4.50;;;;;;;20.35;20.68;100439.28;5075119;28;20493;-77
2021/04/10 11:22:08;;;;;;;4.47;3.63;;;;;;;20.70;20.25;100475.31;5075181;28;20035;-78
2021/04/10 11:24:34;;;;;;;4.35;3.20;;;;;;;20.79;19.82;100454.38;5075096;28;20016;-76
2021/04/10 11:27:12;;;;;;;4.47;4.03;;;;;;;20.94;19.33;100461.03;5075055;28;20442;-77